Time;durP1;ratioP1;P1;durP2;ratioP2;P2;SDS_P1;SDS_P2;PMS_P1;PMS_P2;Temp;Humidity;BMP_temperature;BMP_pressure;BME280_temperature;BME280_humidity;BME280_pressure;Samples;Min_cycle;Max_cycle;Signal;HPM_P1;HPM_P2
2022/04/17 00:00:55;;;;;;;21.93;9.50;;;2.90;46.60;;;;;;5038202;28;46852;-63
2022/04/17 00:03:21;;;;;;;20.67;8.95;;;2.90;46.50;;;;;;5041274;28;46385;-63
2022/04/17 00:05:49;;;;;;;16.70;9.57;;;2.80;46.50;;;;;;5041018;28;46044;-63
2022/04/17 00:08:14;;;;;;;16.63;8.57;;;2.80;46.50;;;;;;5031392;28;46331;-62
2022/04/17 00:10:40;;;;;;;12.97;8.30;;;2.80;46.50;;;;;;5036661;28;46831;-63
2022/04/17 00:13:06;;;;;;;13.97;8.73;;;2.70;46.40;;;;;;5035094;28;46275;-64
2022/04/17 00:15:31;;;;;;;12.73;7.87;;;2.60;46.40;;;;;;5044939;28;46428;-66
2022/04/17 00:17:57;;;;;;;16.20;8.40;;;2.60;46.90;;;;;;5039163;28;46537;-64
2022/04/17 00:20:22;;;;;;;11.40;7.10;;;2.60;47.00;;;;;;5036966;28;46492;-63
2022/04/17 00:22:48;;;;;;;9.83;6.97;;;2.60;47.20;;;;;;5049016;28;46430;-63
2022/04/17 00:25:16;;;;;;;11.33;7.00;;;2.50;47.10;;;;;;5052808;28;46299;-65
2022/04/17 00:27:42;;;;;;;10.97;7.50;;;2.50;47.00;;;;;;5057063;28;46513;-64
2022/04/17 00:30:08;;;;;;;13.70;7.90;;;2.50;47.10;;;;;;5049507;28;46360;-65
2022/04/17 00:32:36;;;;;;;12.70;8.32;;;2.50;47.20;;;;;;5044430;28;46403;-65
2022/04/17 00:35:03;;;;;;;14.77;8.80;;;2.50;47.30;;;;;;5050797;28;46436;-62
2022/04/17 00:37:29;;;;;;;13.95;9.30;;;2.40;47.50;;;;;;5051240;28;45923;-64
2022/04/17 00:39:55;;;;;;;15.73;9.10;;;2.40;47.60;;;;;;5044491;28;46405;-62
2022/04/17 00:42:20;;;;;;;21.07;10.03;;;2.40;47.80;;;;;;5048672;28;46371;-65
2022/04/17 00:44:46;;;;;;;15.20;9.63;;;2.40;47.70;;;;;;5045973;28;46379;-64
2022/04/17 00:47:16;;;;;;;16.03;9.50;;;2.40;47.90;;;;;;5054734;28;46555;-64
2022/04/17 00:49:46;;;;;;;16.27;9.48;;;2.30;48.00;;;;;;5051146;28;46390;-63
2022/04/17 00:52:12;;;;;;;15.93;9.43;;;2.30;48.20;;;;;;5033942;28;46327;-66
2022/04/17 00:54:46;;;;;;;13.70;9.40;;;2.20;48.20;;;;;;5046072;28;46402;-65
2022/04/17 00:57:15;;;;;;;15.45;9.23;;;2.30;48.40;;;;;;5051037;28;46369;-64
2022/04/17 00:59:42;;;;;;;14.02;8.05;;;2.20;48.30;;;;;;5038429;28;47040;-65
2022/04/17 01:02:08;;;;;;;14.88;9.43;;;2.10;48.20;;;;;;5047655;28;46481;-63
2022/04/17 01:04:34;;;;;;;17.90;10.10;;;2.10;48.50;;;;;;5040883;28;46372;-63
2022/04/17 01:07:00;;;;;;;16.30;10.40;;;2.00;48.50;;;;;;5040300;28;46639;-63
2022/04/17 01:09:26;;;;;;;18.17;10.33;;;2.00;48.50;;;;;;5050590;28;46384;-65
2022/04/17 01:11:52;;;;;;;24.55;13.00;;;2.00;48.70;;;;;;5052725;28;46466;-65
2022/04/17 01:14:20;;;;;;;28.65;12.35;;;2.00;48.80;;;;;;5047700;28;46410;-63
2022/04/17 01:16:46;;;;;;;26.10;13.70;;;2.00;49.00;;;;;;5047974;28;46463;-63
2022/04/17 01:19:12;;;;;;;26.80;13.10;;;1.90;48.90;;;;;;5041681;28;46468;-63
2022/04/17 01:21:40;;;;;;;26.00;14.03;;;2.00;49.20;;;;;;5045755;28;46489;-63
2022/04/17 01:26:58;;;;;;;29.75;14.20;;;1.90;49.40;;;;;;5046928;28;46295;-65
2022/04/17 01:29:25;;;;;;;28.30;14.20;;;1.80;49.40;;;;;;5036880;28;46870;-63
2022/04/17 01:31:51;;;;;;;24.40;12.90;;;1.80;50.00;;;;;;5044351;28;45851;-64
2022/04/17 01:34:18;;;;;;;27.77;13.68;;;1.80;50.00;;;;;;5042965;28;46291;-62
2022/04/17 01:36:48;;;;;;;23.10;12.07;;;1.80;49.90;;;;;;5039421;28;46488;-61
2022/04/17 01:39:14;;;;;;;23.55;12.45;;;1.80;50.10;;;;;;5047592;28;46321;-62
2022/04/17 01:41:40;;;;;;;28.70;12.27;;;1.80;50.30;;;;;;5050748;28;46396;-63
2022/04/17 01:44:06;;;;;;;27.27;13.13;;;1.70;50.20;;;;;;5054387;28;46643;-65
2022/04/17 01:46:33;;;;;;;24.00;13.45;;;1.70;50.30;;;;;;5051877;28;46385;-63
2022/04/17 01:48:59;;;;;;;20.15;12.15;;;1.60;50.50;;;;;;5045776;28;46980;-64
2022/04/17 01:51:24;;;;;;;21.10;12.20;;;1.60;50.50;;;;;;5047026;28;46289;-63
2022/04/17 01:53:50;;;;;;;18.60;11.40;;;1.60;50.70;;;;;;5048052;28;46447;-63
2022/04/17 01:56:16;;;;;;;22.70;12.37;;;1.60;51.00;;;;;;5051079;28;46417;-64
2022/04/17 01:58:41;;;;;;;22.80;12.67;;;1.50;51.00;;;;;;5044888;28;46405;-62
2022/04/17 02:01:07;;;;;;;21.27;11.20;;;1.40;51.10;;;;;;5039675;28;45844;-62
2022/04/17 02:03:32;;;;;;;21.23;11.70;;;1.40;51.00;;;;;;5048614;28;46466;-61
2022/04/17 02:06:00;;;;;;;22.37;11.10;;;1.50;51.10;;;;;;5045171;28;46611;-62
2022/04/17 02:08:28;;;;;;;20.08;10.90;;;1.50;51.20;;;;;;5048036;28;46306;-61
2022/04/17 02:10:54;;;;;;;19.38;10.30;;;1.40;51.10;;;;;;5043106;28;46722;-63
2022/04/17 02:13:19;;;;;;;18.98;9.85;;;1.50;51.60;;;;;;5048720;28;46433;-64
2022/04/17 02:15:45;;;;;;;21.83;10.30;;;1.50;51.60;;;;;;5050182;28;46724;-63
2022/04/17 02:18:11;;;;;;;15.47;10.00;;;1.40;51.50;;;;;;5042380;28;46513;-61
2022/04/17 02:20:37;;;;;;;18.30;10.57;;;1.40;51.80;;;;;;5033279;28;46467;-62
2022/04/17 02:23:03;;;;;;;20.70;10.00;;;1.40;51.70;;;;;;5042836;28;46460;-61
2022/04/17 02:25:28;;;;;;;16.60;9.80;;;1.30;51.90;;;;;;5034886;28;46397;-61
2022/04/17 02:27:54;;;;;;;15.53;10.13;;;1.30;52.20;;;;;;5037258;28;47097;-60
2022/04/17 02:30:19;;;;;;;14.83;9.70;;;1.30;52.20;;;;;;5050830;28;45842;-62
2022/04/17 02:32:46;;;;;;;20.30;9.83;;;1.30;52.20;;;;;;5043948;28;46456;-60
2022/04/17 02:35:11;;;;;;;20.95;10.32;;;1.40;52.60;;;;;;5043887;28;46543;-61
2022/04/17 02:37:37;;;;;;;19.13;11.20;;;1.30;52.30;;;;;;5047152;28;46504;-61
2022/04/17 02:40:03;;;;;;;16.73;11.20;;;1.30;52.30;;;;;;5042090;28;46398;-62
2022/04/17 02:42:28;;;;;;;18.57;11.00;;;1.30;52.30;;;;;;5036229;28;46570;-61
2022/04/17 02:44:54;;;;;;;19.13;11.50;;;1.30;52.20;;;;;;5033900;28;46388;-64
2022/04/17 02:50:04;;;;;;;23.63;12.30;;;1.30;52.50;;;;;;5045185;28;46393;-62
2022/04/17 02:52:30;;;;;;;27.52;12.55;;;1.30;52.50;;;;;;5047886;28;46356;-63
2022/04/17 02:54:55;;;;;;;21.00;11.97;;;1.30;52.40;;;;;;5053911;28;46577;-62
2022/04/17 02:57:21;;;;;;;23.23;12.50;;;1.30;52.50;;;;;;5045926;28;46362;-62
2022/04/17 02:59:46;;;;;;;18.23;11.20;;;1.30;52.70;;;;;;5050776;28;46463;-62
2022/04/17 03:07:40;;;;;;;23.05;10.75;;;1.20;52.70;;;;;;5047759;28;46433;-64
2022/04/17 03:10:07;;;;;;;22.10;12.57;;;1.20;52.70;;;;;;5053586;28;46344;-64
2022/04/17 03:12:36;;;;;;;20.02;12.00;;;1.20;52.70;;;;;;5050985;28;46458;-62
2022/04/17 03:15:02;;;;;;;22.63;11.63;;;1.10;52.70;;;;;;5058404;28;46250;-60
2022/04/17 03:17:28;;;;;;;22.33;12.13;;;1.10;52.70;;;;;;5051984;28;46348;-62
2022/04/17 03:19:54;;;;;;;21.20;12.23;;;1.10;52.70;;;;;;5049622;28;46686;-63
2022/04/17 03:22:23;;;;;;;19.43;11.07;;;1.10;52.80;;;;;;5056079;28;46374;-61
2022/04/17 03:24:49;;;;;;;18.33;11.55;;;0.90;52.70;;;;;;5048437;28;46704;-60
2022/04/17 03:27:14;;;;;;;20.47;11.93;;;0.80;52.70;;;;;;5053418;28;47264;-61
2022/04/17 03:29:40;;;;;;;20.87;11.30;;;0.80;53.10;;;;;;5051363;28;46207;-61
2022/04/17 03:32:06;;;;;;;19.50;11.27;;;0.70;53.30;;;;;;5043197;28;46375;-62
2022/04/17 03:34:31;;;;;;;17.13;10.77;;;0.60;53.30;;;;;;5045527;28;46553;-63
2022/04/17 03:36:58;;;;;;;19.70;11.20;;;0.50;53.30;;;;;;5050375;28;46302;-61
2022/04/17 03:39:24;;;;;;;20.50;12.80;;;0.50;53.30;;;;;;5051429;28;46486;-61
2022/04/17 03:41:53;;;;;;;25.70;12.40;;;0.50;53.30;;;;;;5050551;28;45846;-62
2022/04/17 03:44:19;;;;;;;29.23;13.18;;;0.50;53.20;;;;;;5051069;28;46435;-62
2022/04/17 03:46:45;;;;;;;26.23;13.98;;;0.50;53.30;;;;;;5048089;28;46396;-63
2022/04/17 03:49:11;;;;;;;26.80;13.68;;;0.40;53.40;;;;;;5047617;28;46315;-60
2022/04/17 03:51:37;;;;;;;28.60;14.83;;;0.40;53.40;;;;;;5048382;28;46465;-62
2022/04/17 03:54:03;;;;;;;29.00;13.50;;;0.30;53.50;;;;;;5045173;28;46490;-62
2022/04/17 03:56:28;;;;;;;30.20;13.87;;;0.30;53.60;;;;;;5040234;28;47028;-61
2022/04/17 03:58:54;;;;;;;23.87;13.17;;;0.30;53.60;;;;;;5042485;28;46469;-64
2022/04/17 04:01:20;;;;;;;23.27;13.60;;;0.30;53.60;;;;;;5046394;28;46504;-62
2022/04/17 04:03:46;;;;;;;18.90;12.20;;;0.40;53.50;;;;;;5048783;28;46420;-63
2022/04/17 04:06:11;;;;;;;17.80;11.75;;;0.40;53.50;;;;;;5045914;28;46455;-61
2022/04/17 04:08:37;;;;;;;24.53;13.70;;;0.40;53.50;;;;;;5046523;28;45786;-62
2022/04/17 04:11:02;;;;;;;21.87;11.13;;;0.40;53.40;;;;;;5051578;28;46324;-63
2022/04/17 04:13:28;;;;;;;21.63;12.97;;;0.40;54.30;;;;;;5058424;28;46378;-62
2022/04/17 04:15:55;;;;;;;26.17;14.20;;;0.40;53.40;;;;;;5047302;28;47385;-62
2022/04/17 04:18:21;;;;;;;23.75;12.85;;;0.40;53.40;;;;;;5053120;28;46622;-63
2022/04/17 04:20:47;;;;;;;28.75;13.85;;;0.60;53.40;;;;;;5054911;28;46391;-62
2022/04/17 04:23:13;;;;;;;22.83;13.60;;;0.50;53.30;;;;;;5048990;28;46320;-63
2022/04/17 04:25:38;;;;;;;21.43;13.10;;;0.50;53.40;;;;;;5054964;28;47260;-61
2022/04/17 04:30:48;;;;;;;20.75;11.88;;;0.60;53.30;;;;;;5051634;28;46375;-63
2022/04/17 04:33:14;;;;;;;23.30;13.03;;;0.60;53.50;;;;;;5049501;28;46429;-62
2022/04/17 04:35:40;;;;;;;24.33;12.20;;;0.50;53.40;;;;;;5040149;28;46390;-63
2022/04/17 04:38:06;;;;;;;19.20;11.87;;;0.50;53.50;;;;;;5036208;28;45790;-63
2022/04/17 04:40:32;;;;;;;18.90;10.73;;;0.50;53.70;;;;;;5041074;28;46414;-63
2022/04/17 04:43:01;;;;;;;23.92;11.88;;;0.50;53.50;;;;;;5049597;28;46516;-64
2022/04/17 04:48:12;;;;;;;23.10;12.65;;;0.60;53.50;;;;;;5046946;28;46527;-63
2022/04/17 04:50:37;;;;;;;20.23;11.33;;;0.60;53.40;;;;;;5045747;28;46472;-65
2022/04/17 04:53:04;;;;;;;21.47;11.67;;;0.70;53.30;;;;;;5037186;28;46392;-63
2022/04/17 04:55:29;;;;;;;25.50;11.10;;;0.70;53.30;;;;;;5032974;28;46255;-63
2022/04/17 04:57:55;;;;;;;23.77;12.80;;;0.70;53.40;;;;;;5039213;28;46409;-64
2022/04/17 05:00:21;;;;;;;19.07;10.40;;;0.70;53.40;;;;;;5045526;28;46457;-63
2022/04/17 05:02:47;;;;;;;20.60;11.30;;;0.80;53.40;;;;;;5045810;28;46621;-65
2022/04/17 05:05:13;;;;;;;21.50;12.02;;;0.80;53.40;;;;;;5041205;28;46453;-62
2022/04/17 05:07:39;;;;;;;23.93;12.60;;;0.80;53.40;;;;;;5039265;28;46362;-62
2022/04/17 05:10:06;;;;;;;18.93;11.60;;;0.90;53.60;;;;;;5041515;28;46397;-61
2022/04/17 05:12:32;;;;;;;25.67;11.50;;;0.90;53.30;;;;;;5039861;28;46526;-61
2022/04/17 05:14:58;;;;;;;21.08;11.80;;;1.10;53.30;;;;;;5044086;28;46775;-61
2022/04/17 05:17:24;;;;;;;21.37;13.03;;;1.10;53.20;;;;;;5038097;28;46549;-62
2022/04/17 05:19:50;;;;;;;22.60;12.87;;;1.20;53.10;;;;;;5040708;28;46342;-62
2022/04/17 05:22:20;;;;;;;21.92;11.95;;;1.50;52.50;;;;;;5036943;28;46627;-62
2022/04/17 05:24:46;;;;;;;22.17;12.45;;;1.70;51.70;;;;;;5044502;28;47276;-62
2022/04/17 05:27:13;;;;;;;18.52;11.82;;;2.50;50.90;;;;;;5040376;28;46441;-62
2022/04/17 05:29:41;;;;;;;25.73;11.13;;;3.80;51.30;;;;;;5042526;28;46313;-63
2022/04/17 05:32:07;;;;;;;13.13;8.73;;;5.00;51.10;;;;;;5043555;28;46524;-62
2022/04/17 05:34:35;;;;;;;14.87;8.90;;;6.00;49.90;;;;;;5044009;28;46533;-62
2022/04/17 05:37:00;;;;;;;14.70;8.80;;;6.80;49.90;;;;;;5039921;28;46279;-62
2022/04/17 05:39:26;;;;;;;24.40;9.93;;;7.60;49.00;;;;;;5040355;28;47038;-62
2022/04/17 05:41:52;;;;;;;16.50;9.00;;;8.30;48.70;;;;;;5045582;28;46472;-63
2022/04/17 05:44:17;;;;;;;12.37;7.67;;;8.80;47.90;;;;;;5043852;28;47215;-62
2022/04/17 05:46:43;;;;;;;21.80;8.80;;;9.30;47.20;;;;;;5037796;27;46118;-64
2022/04/17 05:49:09;;;;;;;14.67;8.90;;;9.80;46.40;;;;;;5040252;28;46358;-64
2022/04/17 05:51:36;;;;;;;14.80;8.63;;;10.40;44.40;;;;;;5036435;28;46458;-62
2022/04/17 05:54:05;;;;;;;19.90;9.50;;;10.90;43.30;;;;;;5039243;28;46382;-62
2022/04/17 05:56:31;;;;;;;18.03;9.47;;;11.40;41.40;;;;;;5041562;28;46660;-61
2022/04/17 05:58:57;;;;;;;21.23;10.20;;;11.60;40.00;;;;;;5041653;28;46410;-62
2022/04/17 06:01:24;;;;;;;18.63;9.73;;;11.80;38.80;;;;;;5038962;28;46691;-62
2022/04/17 06:03:50;;;;;;;16.00;9.17;;;12.00;37.40;;;;;;5038381;28;46572;-63
2022/04/17 06:06:19;;;;;;;13.83;7.80;;;11.90;36.00;;;;;;5030305;28;46468;-62
2022/04/17 06:08:46;;;;;;;17.20;8.10;;;11.50;34.30;;;;;;5037630;28;46490;-61
2022/04/17 06:11:12;;;;;;;17.27;7.00;;;11.10;32.30;;;;;;5038321;28;46657;-61
2022/04/17 06:13:38;;;;;;;12.87;6.10;;;11.00;32.50;;;;;;5033574;28;47614;-62
2022/04/17 06:16:04;;;;;;;8.90;5.50;;;10.80;31.80;;;;;;5032792;28;46660;-62
2022/04/17 06:18:30;;;;;;;11.00;6.37;;;10.20;30.40;;;;;;5036978;28;45887;-63
2022/04/17 06:20:56;;;;;;;12.20;5.40;;;9.70;31.20;;;;;;5034370;28;46382;-63
2022/04/17 06:23:22;;;;;;;10.77;5.27;;;8.90;32.60;;;;;;5035354;28;46395;-61
2022/04/17 06:25:48;;;;;;;10.47;5.60;;;8.10;33.80;;;;;;5036791;28;46394;-60
2022/04/17 06:28:13;;;;;;;8.57;5.27;;;7.60;35.30;;;;;;5041040;28;46426;-62
2022/04/17 06:30:39;;;;;;;11.00;5.10;;;7.30;36.40;;;;;;5053353;28;46402;-61
2022/04/17 06:33:04;;;;;;;7.87;5.37;;;7.00;36.80;;;;;;5046173;28;46919;-62
2022/04/17 06:35:30;;;;;;;15.00;6.10;;;6.90;36.90;;;;;;5033586;28;46354;-63
2022/04/17 06:37:57;;;;;;;11.40;5.50;;;8.00;34.50;;;;;;5032510;28;45957;-63
2022/04/17 06:40:28;;;;;;;8.57;4.80;;;9.00;31.50;;;;;;5036294;28;46296;-63
2022/04/17 06:42:57;;;;;;;8.63;4.97;;;8.60;32.10;;;;;;5034381;28;46067;-63
2022/04/17 06:45:23;;;;;;;7.43;4.53;;;7.80;34.10;;;;;;5032324;28;46381;-60
2022/04/17 06:47:49;;;;;;;8.10;4.80;;;7.20;35.90;;;;;;5034834;28;46393;-61
2022/04/17 06:50:16;;;;;;;8.00;4.63;;;6.80;36.60;;;;;;5033329;28;46400;-60
2022/04/17 06:52:41;;;;;;;7.57;5.40;;;6.70;37.40;;;;;;5033762;28;48712;-61
2022/04/17 06:55:11;;;;;;;7.97;4.77;;;6.60;37.90;;;;;;5034473;28;46381;-61
2022/04/17 06:57:37;;;;;;;6.70;4.20;;;6.60;38.20;;;;;;5029846;28;46410;-61
2022/04/17 07:00:09;;;;;;;5.90;4.47;;;6.70;38.50;;;;;;5035371;28;46366;-61
2022/04/17 07:02:36;;;;;;;11.43;5.07;;;6.80;38.30;;;;;;5034106;28;46467;-62
2022/04/17 07:05:02;;;;;;;6.80;4.00;;;7.00;38.10;;;;;;5033784;28;46446;-61
2022/04/17 07:07:27;;;;;;;6.97;4.10;;;7.20;38.10;;;;;;5029900;28;46299;-61
2022/04/17 07:09:54;;;;;;;7.50;4.97;;;7.10;37.50;;;;;;5030836;28;46228;-61
2022/04/17 07:12:20;;;;;;;10.73;4.50;;;7.00;37.80;;;;;;5030514;28;46418;-62
2022/04/17 07:14:47;;;;;;;8.70;4.70;;;7.20;38.30;;;;;;5031476;28;46453;-62
2022/04/17 07:17:13;;;;;;;7.03;4.10;;;7.40;38.10;;;;;;5029926;28;46401;-60
2022/04/17 07:19:39;;;;;;;9.57;4.00;;;7.60;37.40;;;;;;5026352;28;46586;-63
2022/04/17 07:22:04;;;;;;;7.70;4.10;;;7.50;37.20;;;;;;5028484;28;47181;-63
2022/04/17 07:24:30;;;;;;;7.40;4.03;;;7.60;37.40;;;;;;5029214;28;46443;-63
2022/04/17 07:26:56;;;;;;;7.67;3.40;;;7.80;37.60;;;;;;5031327;28;46458;-63
2022/04/17 07:29:23;;;;;;;5.33;3.27;;;7.70;37.40;;;;;;5023209;28;46364;-62
2022/04/17 07:31:55;;;;;;;6.33;3.60;;;7.70;37.60;;;;;;5032917;28;46263;-63
2022/04/17 07:34:21;;;;;;;6.60;3.70;;;7.70;37.40;;;;;;5024949;28;46373;-64
2022/04/17 07:36:48;;;;;;;5.50;3.27;;;7.70;37.00;;;;;;5030574;28;46477;-62
2022/04/17 07:39:17;;;;;;;7.30;3.80;;;7.70;36.90;;;;;;5028570;28;46351;-61
2022/04/17 07:41:44;;;;;;;4.63;3.53;;;7.70;36.10;;;;;;5026734;28;46552;-62
2022/04/17 07:44:13;;;;;;;5.13;3.50;;;7.80;35.30;;;;;;5029822;28;46321;-62
2022/04/17 07:46:39;;;;;;;4.87;3.10;;;8.00;35.30;;;;;;5024884;28;46293;-62
2022/04/17 07:49:05;;;;;;;5.47;3.60;;;7.90;34.40;;;;;;5034045;28;46450;-62
2022/04/17 07:51:31;;;;;;;6.27;3.17;;;8.00;34.70;;;;;;5031799;28;47052;-62
2022/04/17 07:53:57;;;;;;;5.93;3.40;;;8.20;34.30;;;;;;5037950;28;46453;-62
2022/04/17 07:56:23;;;;;;;5.27;3.80;;;8.20;33.50;;;;;;5031950;28;46483;-61
2022/04/17 07:58:48;;;;;;;5.10;3.33;;;8.40;33.50;;;;;;5024731;28;46343;-63
2022/04/17 08:01:16;;;;;;;6.90;3.40;;;8.40;32.40;;;;;;5032631;28;46312;-62
2022/04/17 08:06:10;;;;;;;5.37;3.27;;;8.70;32.00;;;;;;5033718;28;46472;-62
2022/04/17 08:08:37;;;;;;;6.10;3.80;;;8.70;31.10;;;;;;5032185;28;46608;-62
2022/04/17 08:11:08;;;;;;;5.67;3.50;;;8.80;31.10;;;;;;5030122;28;46394;-62
2022/04/17 08:13:34;;;;;;;4.47;3.00;;;8.90;31.10;;;;;;5031994;28;46021;-62
2022/04/17 08:16:01;;;;;;;5.90;3.10;;;9.10;30.30;;;;;;5034929;28;46385;-62
2022/04/17 08:18:27;;;;;;;4.60;3.30;;;9.10;29.60;;;;;;5029282;28;46573;-63
2022/04/17 08:20:53;;;;;;;7.17;2.80;;;9.10;28.50;;;;;;5025644;28;46459;-63
2022/04/17 08:23:18;;;;;;;4.00;2.90;;;9.10;28.10;;;;;;5032167;28;46433;-64
2022/04/17 08:25:44;;;;;;;6.27;3.47;;;9.00;28.10;;;;;;5029619;28;46326;-63
2022/04/17 08:28:10;;;;;;;5.53;3.23;;;9.00;27.90;;;;;;5025807;28;46441;-62
2022/04/17 08:30:37;;;;;;;3.70;2.60;;;9.10;27.50;;;;;;5031873;28;46513;-62
2022/04/17 08:33:05;;;;;;;8.20;3.33;;;9.00;27.70;;;;;;5027738;28;46410;-64
2022/04/17 08:35:32;;;;;;;10.83;3.03;;;9.10;27.20;;;;;;5030345;28;46513;-61
2022/04/17 08:38:00;;;;;;;4.70;2.70;;;9.10;27.00;;;;;;5028520;28;46480;-60
2022/04/17 08:40:26;;;;;;;4.93;2.87;;;9.20;26.30;;;;;;5028646;28;46508;-61
2022/04/17 08:42:54;;;;;;;6.30;3.80;;;9.30;26.40;;;;;;5030277;28;46378;-63
2022/04/17 08:45:20;;;;;;;8.77;3.63;;;9.40;26.50;;;;;;5028609;28;46398;-64
2022/04/17 08:47:46;;;;;;;7.07;2.73;;;9.50;26.50;;;;;;5025448;28;46474;-63
2022/04/17 08:50:17;;;;;;;6.00;2.70;;;9.50;26.10;;;;;;5025935;28;46411;-64
2022/04/17 08:52:45;;;;;;;4.43;2.43;;;9.40;25.50;;;;;;5026071;28;46334;-63
2022/04/17 08:55:12;;;;;;;4.23;2.67;;;9.30;25.30;;;;;;5028697;28;46446;-62
2022/04/17 08:57:38;;;;;;;6.63;2.63;;;9.40;25.30;;;;;;5028237;28;46421;-62
2022/04/17 09:00:05;;;;;;;6.27;2.53;;;9.50;25.50;;;;;;5025840;28;46484;-64
2022/04/17 09:02:31;;;;;;;5.20;2.90;;;9.50;24.70;;;;;;5028236;28;46301;-63
2022/04/17 09:04:57;;;;;;;4.37;2.50;;;9.50;24.10;;;;;;5024830;28;46381;-63
2022/04/17 09:07:22;;;;;;;7.13;3.23;;;9.50;23.90;;;;;;5027671;28;46417;-62
2022/04/17 09:09:53;;;;;;;4.47;2.70;;;9.70;24.20;;;;;;5033898;28;47195;-63
2022/04/17 09:12:20;;;;;;;4.70;2.80;;;9.70;24.50;;;;;;5031253;28;46616;-64
2022/04/17 09:14:46;;;;;;;4.47;2.80;;;9.80;24.60;;;;;;5032813;28;46688;-63
2022/04/17 09:17:12;;;;;;;3.93;2.50;;;9.90;25.30;;;;;;5029662;28;46382;-65
2022/04/17 09:19:37;;;;;;;5.10;2.53;;;9.90;24.10;;;;;;5029430;28;46921;-64
2022/04/17 09:22:05;;;;;;;4.53;2.80;;;10.00;23.80;;;;;;5031488;28;45875;-63
2022/04/17 09:24:37;;;;;;;8.67;3.27;;;10.00;23.90;;;;;;5028171;28;46517;-63
2022/04/17 09:27:04;;;;;;;6.07;2.33;;;10.00;24.00;;;;;;5029133;28;46447;-63
2022/04/17 09:29:33;;;;;;;7.10;3.03;;;10.00;23.80;;;;;;5029345;28;47103;-63
2022/04/17 09:32:00;;;;;;;3.63;2.53;;;10.10;23.70;;;;;;5028438;28;46338;-64
2022/04/17 09:34:28;;;;;;;6.07;3.07;;;10.10;23.60;;;;;;5028491;28;46427;-61
2022/04/17 09:36:58;;;;;;;6.57;2.20;;;10.30;24.20;;;;;;5028629;28;46608;-62
2022/04/17 09:39:31;;;;;;;4.90;2.40;;;10.40;23.50;;;;;;5027126;28;46380;-62
2022/04/17 09:41:59;;;;;;;4.77;2.53;;;10.40;23.20;;;;;;5029631;28;46405;-62
2022/04/17 09:44:37;;;;;;;3.97;2.27;;;10.40;24.60;;;;;;5026937;28;46414;-62
2022/04/17 09:47:04;;;;;;;9.43;3.23;;;10.40;22.80;;;;;;5029262;28;46513;-62
2022/04/17 09:49:30;;;;;;;5.90;3.80;;;10.50;22.70;;;;;;5028535;28;46304;-62
2022/04/17 09:52:09;;;;;;;6.73;2.97;;;10.60;22.80;;;;;;5025589;28;46444;-62
2022/04/17 09:54:35;;;;;;;7.03;3.80;;;10.70;23.10;;;;;;5030479;28;46556;-62
2022/04/17 09:57:00;;;;;;;6.87;3.50;;;10.80;23.00;;;;;;5024231;28;46227;-62
2022/04/17 09:59:27;;;;;;;5.40;3.17;;;10.80;22.10;;;;;;5027972;28;47094;-63
2022/04/17 10:01:56;;;;;;;9.77;3.63;;;10.50;21.00;;;;;;5026169;28;46310;-62
2022/04/17 10:04:24;;;;;;;7.20;3.13;;;10.50;21.60;;;;;;5027539;28;46369;-63
2022/04/17 10:06:51;;;;;;;9.80;2.60;;;10.80;22.30;;;;;;5029307;28;46615;-63
2022/04/17 10:09:17;;;;;;;4.70;2.80;;;10.80;21.40;;;;;;5022793;28;47685;-62
2022/04/17 10:11:43;;;;;;;6.07;2.80;;;10.70;20.70;;;;;;5030470;28;46256;-63
2022/04/17 10:14:09;;;;;;;3.43;2.50;;;10.70;20.70;;;;;;5025109;28;46405;-62
2022/04/17 10:16:42;;;;;;;4.23;2.57;;;10.70;20.20;;;;;;5029040;28;46475;-62
2022/04/17 10:19:16;;;;;;;4.50;2.37;;;10.70;20.70;;;;;;5031878;28;46343;-61
2022/04/17 10:21:42;;;;;;;5.23;2.70;;;10.80;20.60;;;;;;5034148;28;46185;-63
2022/04/17 10:24:12;;;;;;;5.10;3.00;;;10.80;20.80;;;;;;5025259;28;46322;-65
2022/04/17 10:26:43;;;;;;;5.90;2.73;;;11.00;20.90;;;;;;5032355;28;46429;-66
2022/04/17 10:29:13;;;;;;;4.67;2.70;;;10.90;20.00;;;;;;5030157;28;47357;-64
2022/04/17 10:32:22;;;;;;;3.70;2.27;;;11.00;20.40;;;;;;5024361;28;46409;-64
2022/04/17 10:34:53;;;;;;;4.90;2.30;;;10.80;18.40;;;;;;5028319;28;46473;-63
2022/04/17 10:37:37;;;;;;;4.23;2.33;;;10.80;17.60;;;;;;5029971;28;46439;-62
2022/04/17 10:40:04;;;;;;;4.07;2.30;;;10.80;18.20;;;;;;5036862;28;47165;-62
2022/04/17 10:42:34;;;;;;;3.70;2.13;;;11.00;18.30;;;;;;5032263;28;46701;-63
2022/04/17 10:45:05;;;;;;;4.33;2.43;;;11.10;18.40;;;;;;5031208;28;46694;-61
2022/04/17 10:47:30;;;;;;;4.60;2.33;;;11.10;18.40;;;;;;5031697;28;46354;-62
2022/04/17 10:49:57;;;;;;;4.73;2.70;;;11.10;18.20;;;;;;5028764;28;46561;-63
2022/04/17 10:52:31;;;;;;;3.30;2.50;;;11.20;18.70;;;;;;5033688;28;46408;-63
2022/04/17 10:55:08;;;;;;;5.33;2.90;;;11.30;19.30;;;;;;5038551;28;46371;-62
2022/04/17 10:57:45;;;;;;;5.13;3.23;;;11.50;19.40;;;;;;5034465;28;46319;-62
2022/04/17 11:00:36;;;;;;;6.40;2.70;;;11.60;19.40;;;;;;5031561;28;46696;-63
2022/04/17 11:03:10;;;;;;;4.00;2.70;;;11.80;19.30;;;;;;5032941;28;46392;-63
2022/04/17 11:06:09;;;;;;;5.33;2.83;;;11.70;19.60;;;;;;5033322;28;45875;-62
2022/04/17 11:08:22;;;;;;;5.93;3.03;;;11.80;19.10;;;;;;5030293;28;46390;-62
2022/04/17 11:11:02;;;;;;;4.33;2.77;;;12.00;19.10;;;;;;5029262;28;46535;-62
2022/04/17 11:13:28;;;;;;;5.23;3.07;;;12.00;19.00;;;;;;5032651;28;46428;-62
2022/04/17 11:15:58;;;;;;;3.93;2.60;;;12.20;19.20;;;;;;5029671;28;46409;-63
2022/04/17 11:18:27;;;;;;;5.63;2.90;;;12.30;18.80;;;;;;5030354;28;46299;-63
2022/04/17 11:20:54;;;;;;;3.70;2.67;;;12.30;18.80;;;;;;5029769;28;46208;-62
2022/04/17 11:23:47;;;;;;;4.70;2.90;;;12.20;17.30;;;;;;5030137;28;46688;-63
2022/04/17 11:26:13;;;;;;;5.53;2.70;;;12.20;17.80;;;;;;5030447;28;46717;-62
2022/04/17 11:28:38;;;;;;;5.33;2.97;;;12.10;16.80;;;;;;5028002;28;46335;-61
2022/04/17 11:31:04;;;;;;;9.43;2.83;;;12.00;17.20;;;;;;5030477;28;48279;-62
2022/04/17 11:33:30;;;;;;;7.07;3.40;;;12.00;18.00;;;;;;5028605;28;46401;-62
2022/04/17 11:35:57;;;;;;;8.10;3.03;;;12.10;18.70;;;;;;5031346;28;46374;-62
2022/04/17 11:38:22;;;;;;;4.10;2.70;;;12.20;18.70;;;;;;5030751;28;46291;-62
2022/04/17 11:40:49;;;;;;;5.13;3.40;;;11.90;18.40;;;;;;5032723;28;46291;-62
2022/04/17 11:43:16;;;;;;;4.67;2.80;;;12.10;19.00;;;;;;5033102;28;46478;-62
2022/04/17 11:45:43;;;;;;;4.10;2.90;;;12.30;18.40;;;;;;5034042;28;46480;-62
2022/04/17 11:48:11;;;;;;;9.83;2.70;;;12.50;17.50;;;;;;5029958;28;46605;-61
2022/04/17 11:50:38;;;;;;;6.00;3.07;;;12.70;17.60;;;;;;5035117;28;47072;-62
2022/04/17 11:53:11;;;;;;;4.70;3.10;;;12.60;17.20;;;;;;5032280;28;46357;-63
2022/04/17 11:55:38;;;;;;;3.77;2.67;;;12.70;17.20;;;;;;5032482;28;46422;-64
2022/04/17 11:58:09;;;;;;;5.13;3.20;;;12.80;17.30;;;;;;5033440;28;46345;-62
2022/04/17 12:00:35;;;;;;;4.27;2.67;;;12.50;17.10;;;;;;5029372;28;46751;-62
2022/04/17 12:03:09;;;;;;;7.50;3.37;;;12.50;17.10;;;;;;5030979;28;46426;-62
2022/04/17 12:05:36;;;;;;;6.23;2.67;;;12.50;17.10;;;;;;5029158;28;46365;-62
2022/04/17 12:08:06;;;;;;;8.57;4.37;;;12.50;17.10;;;;;;5029750;28;46327;-62
2022/04/17 12:10:33;;;;;;;4.77;2.70;;;12.70;17.20;;;;;;5030065;28;46439;-62
2022/04/17 12:13:17;;;;;;;5.73;2.70;;;12.70;17.30;;;;;;5028696;28;46391;-62
2022/04/17 12:15:44;;;;;;;4.37;2.83;;;12.70;17.20;;;;;;5037777;28;46410;-63
2022/04/17 12:18:10;;;;;;;8.47;2.40;;;12.90;17.40;;;;;;5025756;28;46434;-62
2022/04/17 12:20:38;;;;;;;5.53;3.10;;;12.90;17.10;;;;;;5026916;28;47405;-62
2022/04/17 12:23:04;;;;;;;6.03;2.60;;;12.80;17.30;;;;;;5030126;28;46334;-61
2022/04/17 12:25:30;;;;;;;8.30;2.70;;;12.80;16.30;;;;;;5025154;28;46189;-62
2022/04/17 12:27:55;;;;;;;6.67;2.77;;;12.80;16.40;;;;;;5029485;28;46350;-62
2022/04/17 12:30:26;;;;;;;5.10;2.67;;;12.70;15.70;;;;;;5025973;28;46450;-63
2022/04/17 12:32:59;;;;;;;3.37;2.50;;;12.70;15.30;;;;;;5027217;28;45817;-63
2022/04/17 12:35:26;;;;;;;4.60;2.40;;;12.90;15.10;;;;;;5029682;28;46663;-62
2022/04/17 12:38:06;;;;;;;4.20;2.33;;;12.90;15.30;;;;;;5022826;28;46395;-62
2022/04/17 12:40:38;;;;;;;5.47;2.40;;;12.80;15.50;;;;;;5033118;28;47091;-63
2022/04/17 12:43:21;;;;;;;3.37;2.20;;;12.70;15.60;;;;;;5037142;28;46633;-63
2022/04/17 12:45:59;;;;;;;3.80;2.20;;;12.60;14.30;;;;;;5026776;28;46360;-62
2022/04/17 12:48:27;;;;;;;4.53;2.57;;;12.80;14.60;;;;;;5033639;28;46596;-64
2022/04/17 12:51:14;;;;;;;7.30;2.70;;;12.80;14.70;;;;;;5031733;28;46535;-63
2022/04/17 12:53:42;;;;;;;3.80;2.10;;;12.80;14.70;;;;;;5033686;28;46455;-63
2022/04/17 12:56:10;;;;;;;5.60;2.43;;;12.80;14.70;;;;;;5034618;28;46422;-62
2022/04/17 12:58:50;;;;;;;5.70;2.13;;;12.80;14.40;;;;;;5030483;28;45962;-62
2022/04/17 13:01:40;;;;;;;4.70;2.30;;;12.70;14.50;;;;;;5027604;28;47224;-61
2022/04/17 13:04:19;;;;;;;4.30;2.70;;;12.80;14.60;;;;;;5033281;28;46519;-62
2022/04/17 13:06:45;;;;;;;3.90;2.30;;;13.00;14.40;;;;;;5024021;28;46308;-63